createdAt,value
2022-11-28T00:10:40.669Z,42.42
2022-11-28T00:25:42.786Z,43.53
2022-11-28T00:40:44.668Z,57.42
2022-11-28T00:55:46.891Z,50.75
2022-11-28T01:10:48.829Z,50.75
2022-11-28T01:25:50.906Z,54.88
2022-11-28T01:40:53.407Z,52.75
2022-11-28T01:56:01.456Z,50.20
2022-11-28T02:11:12.435Z,48.17
2022-11-28T02:26:41.526Z,48.00
2022-11-28T02:41:55.732Z,46.10
2022-11-28T02:57:00.342Z,46.30
2022-11-28T03:12:16.118Z,48.30
2022-11-28T03:27:20.546Z,51.25
2022-11-28T03:42:24.968Z,48.10
2022-11-28T03:57:49.908Z,49.95
2022-11-28T04:13:04.518Z,49.85
2022-11-28T04:28:12.107Z,55.20
2022-11-28T04:43:28.677Z,45.58
2022-11-28T04:58:37.808Z,46.95
2022-11-28T05:13:39.747Z,58.70
2022-11-28T05:28:46.636Z,50.75
2022-11-28T05:43:49.269Z,49.53
2022-11-28T05:58:53.508Z,55.05
2022-11-28T06:13:55.527Z,51.08
2022-11-28T06:28:57.409Z,47.10
2022-11-28T06:43:59.348Z,51.72
2022-11-28T06:59:01.908Z,51.53
2022-11-28T07:14:03.988Z,49.35
2022-11-28T07:29:07.567Z,47.38
2022-11-28T07:44:10.491Z,46.60
2022-11-28T07:59:12.888Z,44.95
2022-11-28T08:14:14.849Z,44.63
2022-11-28T08:29:16.788Z,46.20
2022-11-28T08:44:18.930Z,41.00
2022-11-28T08:59:21.190Z,39.92
2022-11-28T09:14:23.168Z,37.78
2022-11-28T09:29:25.486Z,37.00
2022-11-28T09:44:41.108Z,35.15
2022-11-28T09:59:43.325Z,30.48
2022-11-28T10:15:09.668Z,29.10
2022-11-28T10:30:37.174Z,28.23
2022-11-28T10:45:48.882Z,29.33
2022-11-28T11:00:57.510Z,29.15
2022-11-28T11:16:07.268Z,28.25
2022-11-28T11:31:23.591Z,26.27
2022-11-28T11:46:25.609Z,24.27
2022-11-28T12:01:30.591Z,23.35
2022-11-28T12:16:52.508Z,24.55
2022-11-28T12:32:09.230Z,25.60
2022-11-28T12:47:43.530Z,26.95
2022-11-28T13:02:54.379Z,26.00
2022-11-28T13:18:28.688Z,25.73
2022-11-28T13:33:33.620Z,25.58
2022-11-28T14:04:03.038Z,25.15
2022-11-28T14:19:22.807Z,20.55
2022-11-28T14:34:44.709Z,24.73
2022-11-28T14:49:46.954Z,23.80
2022-11-28T15:05:10.131Z,25.55
2022-11-28T15:20:23.389Z,27.80
2022-11-28T15:35:25.959Z,22.10
2022-11-28T15:50:30.772Z,21.70
2022-11-28T16:05:32.847Z,22.20
2022-11-28T16:20:37.400Z,19.55
2022-11-28T16:35:40.767Z,19.25
2022-11-28T16:51:02.630Z,20.65
2022-11-28T17:06:04.666Z,21.02
2022-11-28T17:21:09.705Z,22.80
2022-11-28T17:36:12.777Z,21.23
2022-11-28T17:51:14.746Z,21.73
2022-11-28T18:06:18.109Z,20.50
2022-11-28T18:21:20.234Z,20.20
2022-11-28T18:36:27.288Z,22.50
2022-11-28T18:51:31.594Z,21.60
2022-11-28T19:06:35.454Z,22.35
2022-11-28T19:21:37.671Z,25.13
2022-11-28T19:36:47.798Z,22.83
2022-11-28T19:51:50.626Z,23.50
2022-11-28T20:06:52.526Z,22.08
2022-11-28T20:22:01.372Z,21.63
2022-11-28T20:37:03.286Z,20.95
2022-11-28T20:52:05.728Z,20.75
2022-11-28T21:07:07.628Z,21.98
2022-11-28T21:22:09.495Z,20.02
2022-11-28T21:37:11.377Z,20.38
2022-11-28T21:52:13.735Z,16.60
2022-11-28T22:07:15.671Z,15.27
2022-11-28T22:22:17.764Z,16.23
2022-11-28T22:37:19.653Z,16.20
2022-11-28T22:52:21.760Z,14.60
2022-11-28T23:07:23.721Z,15.07
2022-11-28T23:22:25.725Z,14.55
2022-11-28T23:37:27.715Z,15.30
2022-11-28T23:52:29.627Z,13.90
